Time;durP1;ratioP1;P1;durP2;ratioP2;P2;SDS_P1;SDS_P2;PMS_P1;PMS_P2;Temp;Humidity;BMP_temperature;BMP_pressure;BME280_temperature;BME280_humidity;BME280_pressure;Samples;Min_cycle;Max_cycle;Signal;HPM_P1;HPM_P2
2021/09/21 00:00:30;;;;;;;9.25;6.68;;;;;;;10.89;87.74;102259.59;4927480;28;20056;-84
2021/09/21 00:02:55;;;;;;;10.13;6.30;;;;;;;10.78;88.20;102262.34;4930327;29;20229;-81
2021/09/21 00:05:21;;;;;;;11.70;7.00;;;;;;;10.73;88.62;102272.59;4945979;28;20482;-80
2021/09/21 00:07:47;;;;;;;10.07;6.50;;;;;;;10.67;88.81;102267.75;4946042;28;20542;-80
2021/09/21 00:10:13;;;;;;;9.65;6.13;;;;;;;10.52;89.32;102270.75;4952250;28;20041;-78
2021/09/21 00:12:39;;;;;;;10.60;7.15;;;;;;;10.45;89.67;102271.41;4952796;28;20046;-81
2021/09/21 00:15:06;;;;;;;9.93;6.75;;;;;;;10.37;90.50;102277.38;4953832;28;20118;-81
2021/09/21 00:17:32;;;;;;;9.98;7.35;;;;;;;10.30;91.13;102271.69;4950684;28;20142;-80
2021/09/21 00:19:57;;;;;;;13.38;7.05;;;;;;;10.17;91.39;102276.31;4951626;28;20125;-80
2021/09/21 00:22:22;;;;;;;10.27;6.03;;;;;;;10.13;91.90;102272.19;4931246;29;20043;-81
2021/09/21 00:24:48;;;;;;;8.95;6.25;;;;;;;10.08;91.77;102267.19;4929686;28;20139;-81
2021/09/21 00:27:13;;;;;;;11.52;7.00;;;;;;;10.01;91.83;102268.69;4928609;28;20483;-81
2021/09/21 00:29:39;;;;;;;13.10;8.10;;;;;;;9.97;92.11;102283.28;4926652;28;20506;-80
2021/09/21 00:32:04;;;;;;;12.30;8.30;;;;;;;9.89;92.58;102267.81;4933939;29;20051;-82
2021/09/21 00:34:37;;;;;;;11.02;7.95;;;;;;;9.83;93.25;102272.81;4931177;28;20550;-79
2021/09/21 00:37:05;;;;;;;11.95;7.60;;;;;;;9.71;93.66;102275.50;4931559;28;20055;-80
2021/09/21 00:39:30;;;;;;;10.55;7.40;;;;;;;9.66;94.04;102272.34;4947367;28;20058;-80
2021/09/21 00:41:56;;;;;;;9.98;7.22;;;;;;;9.65;93.91;102275.16;4944266;28;20048;-80
2021/09/21 00:44:22;;;;;;;9.43;7.28;;;;;;;9.56;94.14;102270.53;4949293;28;20047;-79
2021/09/21 00:46:48;;;;;;;12.82;8.32;;;;;;;9.51;94.15;102276.25;4945794;28;20048;-83
2021/09/21 00:49:14;;;;;;;10.25;7.55;;;;;;;9.53;94.67;102281.50;4948177;28;20066;-80
2021/09/21 00:51:40;;;;;;;10.57;7.97;;;;;;;9.50;94.86;102271.88;4951534;28;20047;-79
2021/09/21 00:54:06;;;;;;;10.05;7.60;;;;;;;9.40;94.95;102260.16;4953691;28;20178;-80
2021/09/21 00:56:31;;;;;;;10.40;7.53;;;;;;;9.39;95.12;102264.66;4954803;28;20130;-80
2021/09/21 00:58:57;;;;;;;10.10;7.72;;;;;;;9.37;94.84;102257.72;4944685;28;20047;-84
2021/09/21 01:01:23;;;;;;;12.52;7.88;;;;;;;9.26;94.92;102262.13;4950281;28;20039;-79
2021/09/21 01:03:48;;;;;;;9.80;7.15;;;;;;;9.20;95.32;102270.59;4941546;28;20062;-79
2021/09/21 01:06:14;;;;;;;11.52;7.95;;;;;;;9.15;95.30;102270.13;4944009;28;20051;-80
2021/09/21 01:08:41;;;;;;;11.48;7.53;;;;;;;9.06;95.55;102273.50;4944841;28;20121;-80
2021/09/21 01:11:15;;;;;;;10.48;7.88;;;;;;;8.95;96.38;102268.16;4933511;28;20158;-79
2021/09/21 01:13:41;;;;;;;9.68;6.90;;;;;;;8.94;96.33;102277.13;4938429;29;20134;-79
2021/09/21 01:16:06;;;;;;;12.63;7.82;;;;;;;8.86;97.09;102274.19;4951445;28;20418;-81
2021/09/21 01:18:32;;;;;;;10.57;7.07;;;;;;;8.87;96.57;102274.06;4955405;28;20125;-80
2021/09/21 01:21:06;;;;;;;10.68;7.47;;;;;;;8.81;96.11;102275.38;4952228;28;20051;-83
2021/09/21 01:23:49;;;;;;;10.73;7.20;;;;;;;8.73;96.92;102277.78;4954430;28;20523;-80
2021/09/21 01:26:16;;;;;;;12.10;6.93;;;;;;;8.72;96.92;102284.13;4952130;28;20498;-80
2021/09/21 01:28:41;;;;;;;10.95;8.30;;;;;;;8.72;97.47;102286.81;4950021;28;20047;-84
2021/09/21 01:31:07;;;;;;;13.40;9.10;;;;;;;8.69;97.30;102291.50;4949823;28;20039;-79
2021/09/21 01:33:32;;;;;;;11.93;9.02;;;;;;;8.69;97.02;102296.84;4937891;28;20050;-80
2021/09/21 01:35:58;;;;;;;11.65;8.13;;;;;;;8.61;97.32;102292.09;4939018;28;20134;-81
2021/09/21 01:38:23;;;;;;;14.15;9.70;;;;;;;8.60;97.35;102295.72;4955387;28;20055;-80
2021/09/21 01:40:49;;;;;;;12.30;10.18;;;;;;;8.59;97.66;102294.03;4946993;28;20490;-80
2021/09/21 01:43:14;;;;;;;13.32;9.43;;;;;;;8.61;98.18;102288.56;4935793;29;20047;-80
2021/09/21 01:45:39;;;;;;;12.63;9.07;;;;;;;8.58;97.63;102289.66;4953739;28;20138;-80
2021/09/21 01:48:05;;;;;;;12.93;9.43;;;;;;;8.55;97.56;102276.50;4951692;28;20138;-81
2021/09/21 01:50:38;;;;;;;11.65;8.57;;;;;;;8.46;97.87;102274.50;4950601;28;20084;-81
2021/09/21 01:53:12;;;;;;;10.73;8.13;;;;;;;8.44;97.85;102276.47;4949132;28;20186;-80
2021/09/21 01:58:19;;;;;;;13.13;9.02;;;;;;;8.32;97.78;102276.38;4956942;28;20484;-79
2021/09/21 02:00:45;;;;;;;12.68;8.98;;;;;;;8.30;97.41;102280.13;4955418;28;20504;-81
2021/09/21 02:03:10;;;;;;;13.30;9.70;;;;;;;8.24;97.52;102273.41;4957953;28;20043;-80
2021/09/21 02:05:35;;;;;;;12.70;8.48;;;;;;;8.20;97.74;102282.63;4955865;28;20057;-80
2021/09/21 02:08:01;;;;;;;12.10;8.60;;;;;;;8.16;97.53;102273.09;4957756;28;20047;-80
2021/09/21 02:10:26;;;;;;;11.48;8.52;;;;;;;8.10;98.01;102268.22;4954583;28;20047;-79
2021/09/21 02:12:52;;;;;;;11.68;8.30;;;;;;;8.06;97.71;102267.59;4942493;28;20130;-79
2021/09/21 02:15:20;;;;;;;12.38;9.02;;;;;;;8.01;98.12;102264.38;4936114;28;20234;-82
2021/09/21 02:17:45;;;;;;;16.38;9.70;;;;;;;7.99;98.01;102271.66;4942316;28;20074;-80
2021/09/21 02:20:11;;;;;;;12.93;9.27;;;;;;;7.95;98.10;102264.84;4934307;28;20529;-80
2021/09/21 02:22:36;;;;;;;11.77;8.75;;;;;;;7.91;98.38;102264.22;4933150;28;20048;-81
2021/09/21 02:25:02;;;;;;;13.10;8.70;;;;;;;7.85;98.56;102270.00;4929734;28;20043;-78
2021/09/21 02:27:27;;;;;;;15.07;10.18;;;;;;;7.84;98.44;102267.44;4938688;28;20046;-79
2021/09/21 02:29:53;;;;;;;12.02;9.05;;;;;;;7.80;99.03;102261.44;4937910;28;20047;-83
2021/09/21 02:32:18;;;;;;;11.55;8.25;;;;;;;7.80;98.76;102266.81;4939146;28;20613;-80
2021/09/21 02:34:47;;;;;;;13.82;9.18;;;;;;;7.77;98.94;102266.16;4935654;28;20048;-79
2021/09/21 02:37:16;;;;;;;12.47;9.33;;;;;;;7.73;98.85;102262.84;4940500;28;20075;-79
2021/09/21 02:39:42;;;;;;;13.70;9.05;;;;;;;7.72;98.82;102271.84;4941652;28;20066;-79
2021/09/21 02:42:08;;;;;;;11.65;9.07;;;;;;;7.69;98.99;102275.56;4944739;28;20047;-79
2021/09/21 02:44:34;;;;;;;12.38;9.10;;;;;;;7.67;98.86;102276.66;4944872;28;20086;-82
2021/09/21 02:47:01;;;;;;;14.23;9.98;;;;;;;7.64;99.11;102272.38;4944718;28;20133;-84
2021/09/21 02:49:26;;;;;;;12.73;9.43;;;;;;;7.61;99.42;102271.75;4926205;28;20043;-80
2021/09/21 02:51:52;;;;;;;14.95;9.60;;;;;;;7.62;99.51;102274.31;4927629;29;20058;-80
2021/09/21 02:54:17;;;;;;;13.13;9.65;;;;;;;7.63;99.99;102275.16;4944131;28;20584;-79
2021/09/21 02:56:42;;;;;;;13.95;9.70;;;;;;;7.64;99.85;102276.88;4942025;28;20047;-79
2021/09/21 02:59:08;;;;;;;14.15;9.88;;;;;;;7.61;100.00;102282.44;4932114;28;20043;-81
2021/09/21 03:01:34;;;;;;;14.05;9.73;;;;;;;7.64;99.76;102279.53;4934515;28;20079;-79
2021/09/21 03:04:04;;;;;;;14.18;9.10;;;;;;;7.57;99.50;102287.16;4938059;28;20391;-79
2021/09/21 03:06:36;;;;;;;16.50;10.32;;;;;;;7.60;99.61;102291.41;4923648;28;20051;-80
2021/09/21 03:11:46;;;;;;;14.02;9.07;;;;;;;7.57;100.00;102291.63;4922250;28;20043;-83
2021/09/21 03:17:09;;;;;;;14.75;9.52;;;;;;;7.56;99.81;102309.47;4940306;28;20078;-83
2021/09/21 03:19:35;;;;;;;11.35;8.93;;;;;;;7.51;100.00;102305.41;4938829;28;20054;-82
2021/09/21 03:22:00;;;;;;;12.45;9.00;;;;;;;7.50;100.00;102317.91;4946282;28;20051;-79
2021/09/21 03:24:26;;;;;;;12.38;9.00;;;;;;;7.47;99.90;102313.63;4943896;28;20105;-81
2021/09/21 03:26:52;;;;;;;14.48;10.10;;;;;;;7.45;100.00;102318.25;4930559;29;20051;-79
2021/09/21 03:29:17;;;;;;;13.95;9.52;;;;;;;7.45;100.00;102320.03;4938123;28;20051;-79
2021/09/21 03:31:43;;;;;;;13.30;8.98;;;;;;;7.45;99.96;102331.59;4945854;28;20050;-82
2021/09/21 03:34:08;;;;;;;11.90;8.90;;;;;;;7.43;99.85;102338.00;4937372;28;20639;-79
2021/09/21 03:36:33;;;;;;;13.40;8.98;;;;;;;7.37;99.67;102333.09;4938627;28;20054;-82
2021/09/21 03:38:59;;;;;;;12.55;8.98;;;;;;;7.35;99.80;102335.00;4943139;28;20054;-80
2021/09/21 03:41:24;;;;;;;14.63;9.60;;;;;;;7.34;99.71;102334.16;4956768;28;20469;-84
2021/09/21 03:43:50;;;;;;;14.05;9.23;;;;;;;7.32;99.83;102341.41;4935798;28;20501;-79
2021/09/21 03:46:17;;;;;;;14.70;9.13;;;;;;;7.22;99.95;102334.97;4935964;28;20039;-79
2021/09/21 03:48:43;;;;;;;13.73;10.18;;;;;;;7.24;100.00;102338.41;4937189;28;20098;-79
2021/09/21 03:51:09;;;;;;;13.90;9.52;;;;;;;7.23;100.00;102340.22;4934292;28;20051;-80
2021/09/21 03:53:34;;;;;;;12.82;10.35;;;;;;;7.17;99.99;102334.47;4909222;28;20044;-82
2021/09/21 03:55:59;;;;;;;15.65;10.50;;;;;;;7.15;100.00;102347.91;4945775;28;20047;-80
2021/09/21 03:58:25;;;;;;;15.98;10.38;;;;;;;7.12;100.00;102342.75;4950436;28;20563;-79
2021/09/21 04:00:50;;;;;;;15.48;9.93;;;;;;;7.11;100.00;102338.41;4945113;28;20078;-79
2021/09/21 04:03:16;;;;;;;12.77;9.82;;;;;;;7.11;100.00;102350.91;4942569;28;20051;-79
2021/09/21 04:05:41;;;;;;;13.88;9.43;;;;;;;7.07;100.00;102354.72;4942968;28;20126;-79
2021/09/21 04:08:07;;;;;;;17.67;10.48;;;;;;;6.99;100.00;102349.88;4931874;28;20059;-80
2021/09/21 04:10:33;;;;;;;13.77;9.50;;;;;;;7.04;100.00;102357.59;4941439;28;20059;-79
2021/09/21 04:12:58;;;;;;;13.63;9.68;;;;;;;6.98;100.00;102356.19;4934786;28;20066;-81
2021/09/21 04:15:23;;;;;;;13.30;9.88;;;;;;;6.94;100.00;102349.34;4946339;28;20592;-79
2021/09/21 04:17:49;;;;;;;16.15;10.18;;;;;;;6.96;100.00;102361.66;4947114;28;20047;-82
2021/09/21 04:20:14;;;;;;;15.40;10.90;;;;;;;7.03;100.00;102371.91;4952158;28;20074;-80
2021/09/21 04:22:42;;;;;;;14.18;10.65;;;;;;;7.04;100.00;102378.94;4946461;28;20125;-82
2021/09/21 04:25:08;;;;;;;15.93;10.85;;;;;;;7.02;100.00;102368.38;4935696;28;20054;-80
2021/09/21 04:27:34;;;;;;;13.95;10.07;;;;;;;7.03;100.00;102379.91;4930889;28;20490;-84
2021/09/21 04:30:01;;;;;;;16.25;10.95;;;;;;;7.06;100.00;102377.88;4934311;28;20189;-80
2021/09/21 04:32:27;;;;;;;14.77;10.82;;;;;;;7.12;100.00;102382.81;4933450;28;20044;-80
2021/09/21 04:34:52;;;;;;;17.85;12.00;;;;;;;7.13;100.00;102372.97;4931793;28;20035;-82
2021/09/21 04:37:18;;;;;;;16.95;10.45;;;;;;;7.17;100.00;102375.34;4931544;28;20109;-82
2021/09/21 04:39:43;;;;;;;16.45;10.77;;;;;;;7.15;100.00;102376.41;4906180;28;20470;-81
2021/09/21 04:42:09;;;;;;;14.60;10.85;;;;;;;7.18;100.00;102384.22;4937442;28;20051;-81
2021/09/21 04:44:36;;;;;;;15.35;11.02;;;;;;;7.24;100.00;102389.97;4924469;28;20102;-80
2021/09/21 04:47:02;;;;;;;18.15;10.85;;;;;;;7.20;100.00;102390.31;4928243;28;20058;-81
2021/09/21 04:49:28;;;;;;;15.57;11.48;;;;;;;7.22;100.00;102378.56;4942497;28;20072;-79
2021/09/21 04:51:53;;;;;;;18.40;11.75;;;;;;;7.28;100.00;102374.63;4933461;28;20490;-81
2021/09/21 04:54:19;;;;;;;18.02;11.45;;;;;;;7.25;100.00;102366.84;4939453;28;20050;-80
2021/09/21 04:56:44;;;;;;;18.35;11.65;;;;;;;7.29;100.00;102370.16;4947449;28;20581;-80
2021/09/21 04:59:10;;;;;;;19.20;12.55;;;;;;;7.34;100.00;102384.03;4938111;28;20047;-81
2021/09/21 05:01:36;;;;;;;18.23;13.25;;;;;;;7.39;100.00;102385.44;4951963;28;20054;-80
2021/09/21 05:04:02;;;;;;;17.95;11.65;;;;;;;7.39;100.00;102382.78;4941317;28;20250;-81
2021/09/21 05:06:27;;;;;;;21.05;13.23;;;;;;;7.48;100.00;102381.28;4940993;28;20054;-80
2021/09/21 05:08:53;;;;;;;18.08;11.80;;;;;;;7.52;100.00;102369.41;4949053;28;20059;-79
2021/09/21 05:11:18;;;;;;;19.52;13.27;;;;;;;7.59;100.00;102364.50;4918267;29;20059;-81
2021/09/21 05:13:44;;;;;;;19.52;13.23;;;;;;;7.63;100.00;102377.53;4933899;28;20078;-83
2021/09/21 05:16:09;;;;;;;18.38;12.43;;;;;;;7.64;100.00;102381.91;4949074;28;20036;-81
2021/09/21 05:18:34;;;;;;;20.65;13.63;;;;;;;7.70;100.00;102388.66;4951906;28;20122;-80
2021/09/21 05:21:00;;;;;;;18.13;13.02;;;;;;;7.76;100.00;102404.25;4939630;28;20106;-82
2021/09/21 05:23:26;;;;;;;16.88;12.10;;;;;;;7.78;100.00;102410.38;4932649;28;20183;-80
2021/09/21 05:25:51;;;;;;;17.90;11.65;;;;;;;7.80;100.00;102412.94;4934543;28;20056;-82
2021/09/21 05:28:17;;;;;;;17.60;12.25;;;;;;;7.81;100.00;102418.16;4942264;28;20779;-80
2021/09/21 05:30:42;;;;;;;18.73;13.05;;;;;;;7.83;100.00;102418.91;4943153;28;20118;-80
2021/09/21 05:33:08;;;;;;;21.33;13.30;;;;;;;7.84;100.00;102417.94;4938537;28;20537;-79
2021/09/21 05:35:33;;;;;;;21.15;14.27;;;;;;;7.89;100.00;102415.81;4934899;28;20055;-79
2021/09/21 05:37:59;;;;;;;20.25;13.88;;;;;;;7.92;100.00;102420.09;4933481;28;20554;-82
2021/09/21 05:40:26;;;;;;;21.13;14.00;;;;;;;7.91;100.00;102419.25;4941127;28;20039;-81
2021/09/21 05:42:52;;;;;;;18.38;13.55;;;;;;;7.99;100.00;102415.16;4934194;28;20039;-79
2021/09/21 05:45:17;;;;;;;22.50;14.52;;;;;;;8.07;100.00;102416.34;4931459;28;20070;-82
2021/09/21 05:47:43;;;;;;;20.92;14.00;;;;;;;8.12;100.00;102416.03;4927810;28;20043;-81
2021/09/21 05:50:11;;;;;;;23.13;13.68;;;;;;;8.20;100.00;102421.69;4938872;28;20202;-80
2021/09/21 05:52:36;;;;;;;21.17;14.75;;;;;;;8.23;100.00;102417.91;4944101;28;20047;-82
2021/09/21 05:55:04;;;;;;;22.80;13.60;;;;;;;8.25;100.00;102421.34;4947460;28;20069;-79
2021/09/21 05:57:29;;;;;;;19.88;13.95;;;;;;;8.29;100.00;102413.00;4937160;28;20390;-80
2021/09/21 05:59:55;;;;;;;20.15;13.95;;;;;;;8.34;100.00;102416.22;4944143;28;20047;-81
2021/09/21 06:02:23;;;;;;;21.85;13.43;;;;;;;8.38;100.00;102418.66;4935856;28;20171;-79
2021/09/21 06:04:49;;;;;;;21.40;13.85;;;;;;;8.38;100.00;102418.66;4943297;28;20121;-81
2021/09/21 06:07:14;;;;;;;21.83;14.85;;;;;;;8.44;100.00;102426.28;4945533;28;20043;-80
2021/09/21 06:09:40;;;;;;;22.73;15.60;;;;;;;8.54;100.00;102432.66;4944745;28;20490;-79
2021/09/21 06:12:05;;;;;;;23.33;15.30;;;;;;;8.61;100.00;102433.09;4945544;28;20047;-81
2021/09/21 06:14:31;;;;;;;19.80;13.38;;;;;;;8.58;100.00;102431.47;4947048;28;20047;-79
2021/09/21 06:16:56;;;;;;;20.80;14.15;;;;;;;8.61;100.00;102433.94;4935242;28;20059;-80
2021/09/21 06:19:21;;;;;;;20.42;15.68;;;;;;;8.72;100.00;102436.69;4939968;28;20047;-79
2021/09/21 06:21:47;;;;;;;23.33;16.25;;;;;;;8.78;100.00;102438.91;4945874;28;20047;-80
2021/09/21 06:24:12;;;;;;;19.85;14.65;;;;;;;8.84;100.00;102444.78;4935256;28;20078;-79
2021/09/21 06:26:38;;;;;;;21.10;14.77;;;;;;;8.84;100.00;102439.44;4930558;28;20087;-82
2021/09/21 06:29:03;;;;;;;22.63;15.65;;;;;;;8.91;100.00;102446.88;4934706;28;20047;-84
2021/09/21 06:31:29;;;;;;;22.52;15.55;;;;;;;8.93;100.00;102450.31;4941863;28;20082;-79
2021/09/21 06:33:54;;;;;;;24.25;14.95;;;;;;;8.92;100.00;102445.03;4936780;28;20128;-80
2021/09/21 06:36:20;;;;;;;24.33;16.38;;;;;;;8.92;100.00;102442.38;4947864;28;20047;-80
2021/09/21 06:38:45;;;;;;;24.65;16.10;;;;;;;9.10;100.00;102445.53;4944621;28;20046;-80
2021/09/21 06:41:11;;;;;;;23.63;17.45;;;;;;;9.21;100.00;102448.28;4946359;28;20375;-79
2021/09/21 06:43:36;;;;;;;22.50;17.33;;;;;;;9.30;99.61;102452.94;4942404;28;20051;-80
2021/09/21 06:46:02;;;;;;;24.73;16.73;;;;;;;9.44;100.00;102459.94;4938058;28;20046;-80
2021/09/21 06:48:27;;;;;;;21.77;15.23;;;;;;;9.54;99.68;102466.28;4939454;28;20101;-81
2021/09/21 06:50:53;;;;;;;22.00;16.23;;;;;;;9.61;98.94;102486.31;4942485;28;20043;-79
2021/09/21 06:53:19;;;;;;;22.17;15.57;;;;;;;9.70;98.70;102504.34;4943188;28;20046;-83
2021/09/21 06:55:45;;;;;;;21.15;14.60;;;;;;;9.76;99.99;102500.34;4935846;28;20051;-84
2021/09/21 06:58:11;;;;;;;21.90;16.35;;;;;;;9.76;100.00;102496.81;4940206;28;20799;-84
2021/09/21 07:00:38;;;;;;;24.48;16.10;;;;;;;9.84;99.92;102494.38;4935061;28;20076;-80
2021/09/21 07:03:06;;;;;;;22.13;16.30;;;;;;;9.90;100.00;102494.78;4944352;28;20043;-79
2021/09/21 07:05:32;;;;;;;26.58;16.67;;;;;;;9.93;100.00;102491.03;4938137;28;20043;-84
2021/09/21 07:07:58;;;;;;;26.15;17.52;;;;;;;10.01;100.00;102498.44;4941065;28;20056;-80
2021/09/21 07:10:23;;;;;;;26.67;18.10;;;;;;;10.06;99.28;102491.75;4941216;28;20050;-82
2021/09/21 07:12:49;;;;;;;23.77;16.80;;;;;;;10.11;99.41;102483.38;4946162;28;20043;-80
2021/09/21 07:15:15;;;;;;;23.88;17.45;;;;;;;10.13;98.90;102484.97;4947267;28;20051;-80
2021/09/21 07:17:41;;;;;;;23.25;16.38;;;;;;;10.16;98.34;102499.97;4942277;28;20051;-85
2021/09/21 07:20:07;;;;;;;23.25;15.07;;;;;;;10.17;98.27;102486.41;4948056;28;20174;-80
2021/09/21 07:22:33;;;;;;;24.83;16.38;;;;;;;10.28;98.80;102499.03;4939773;28;20762;-79
2021/09/21 07:25:00;;;;;;;24.73;16.48;;;;;;;10.38;98.97;102504.50;4945388;28;20083;-84
2021/09/21 07:27:25;;;;;;;22.90;16.92;;;;;;;10.49;98.72;102501.81;4945774;28;20071;-80
2021/09/21 07:29:51;;;;;;;22.27;16.17;;;;;;;10.54;98.20;102494.28;4943684;28;20130;-81
2021/09/21 07:32:16;;;;;;;21.55;15.80;;;;;;;10.54;96.69;102499.63;4942579;28;20047;-83
2021/09/21 07:34:42;;;;;;;21.67;15.15;;;;;;;10.63;96.90;102514.16;4943375;28;20945;-79
2021/09/21 07:37:09;;;;;;;24.30;15.88;;;;;;;10.67;95.94;102509.38;4942208;28;20062;-85
2021/09/21 07:39:35;;;;;;;20.88;14.25;;;;;;;10.73;95.99;102506.19;4942376;28;20418;-80
2021/09/21 07:42:00;;;;;;;23.90;14.43;;;;;;;10.81;95.47;102506.44;4944099;28;20059;-80
2021/09/21 07:44:26;;;;;;;20.70;14.60;;;;;;;10.91;95.52;102511.94;4942885;28;20093;-85
2021/09/21 07:46:51;;;;;;;20.95;15.18;;;;;;;11.01;95.35;102508.34;4942806;28;20056;-80
2021/09/21 07:49:17;;;;;;;20.45;14.15;;;;;;;11.10;94.61;102511.28;4946456;28;20050;-82
2021/09/21 07:51:43;;;;;;;21.35;13.85;;;;;;;11.19;93.94;102510.50;4943881;28;20062;-79
2021/09/21 07:54:09;;;;;;;20.48;13.48;;;;;;;11.27;93.03;102516.09;4944328;28;20143;-79
2021/09/21 07:56:35;;;;;;;20.60;12.77;;;;;;;11.34;92.47;102514.63;4934331;28;20472;-80
2021/09/21 07:59:03;;;;;;;17.85;13.15;;;;;;;11.46;92.62;102518.13;4931470;28;20718;-80
2021/09/21 08:01:29;;;;;;;19.38;13.07;;;;;;;11.49;92.27;102513.34;4926154;29;20044;-80
2021/09/21 08:03:56;;;;;;;15.98;11.52;;;;;;;11.56;90.57;102515.53;4935542;28;20098;-79
2021/09/21 08:06:22;;;;;;;16.05;11.93;;;;;;;11.66;90.08;102524.53;4943584;28;20043;-85
2021/09/21 08:08:48;;;;;;;15.25;10.35;;;;;;;11.77;88.68;102516.41;4934039;28;20051;-80
2021/09/21 08:11:13;;;;;;;14.52;11.05;;;;;;;11.92;88.47;102520.50;4930801;28;20106;-83
2021/09/21 08:13:39;;;;;;;17.95;11.60;;;;;;;12.11;89.50;102527.88;4939584;28;20186;-80
2021/09/21 08:16:05;;;;;;;14.20;10.75;;;;;;;12.25;88.46;102537.41;4943354;28;20047;-81
2021/09/21 08:18:31;;;;;;;14.82;9.88;;;;;;;12.29;85.88;102528.13;4944480;28;20043;-80
2021/09/21 08:20:56;;;;;;;17.27;10.30;;;;;;;12.33;85.31;102542.16;4940152;28;20055;-80
2021/09/21 08:23:21;;;;;;;15.02;9.77;;;;;;;12.40;84.39;102544.19;4944039;28;20764;-80
2021/09/21 08:25:47;;;;;;;13.52;10.13;;;;;;;12.54;84.32;102550.19;4941010;28;20051;-80
2021/09/21 08:28:12;;;;;;;12.77;9.15;;;;;;;12.58;82.62;102547.09;4939011;28;20054;-80
2021/09/21 08:30:38;;;;;;;14.68;8.80;;;;;;;12.75;82.65;102550.16;4923863;29;20132;-80
2021/09/21 08:33:04;;;;;;;12.95;9.35;;;;;;;12.88;83.15;102559.69;4944361;28;20054;-81
2021/09/21 08:35:30;;;;;;;13.52;9.48;;;;;;;12.97;82.34;102559.84;4946337;28;20050;-80
2021/09/21 08:37:56;;;;;;;14.82;10.48;;;;;;;13.07;82.20;102564.28;4942332;28;20069;-80
2021/09/21 08:40:22;;;;;;;16.67;10.60;;;;;;;13.06;80.04;102553.63;4943477;28;20418;-83
2021/09/21 08:42:47;;;;;;;16.25;10.45;;;;;;;13.18;80.78;102560.66;4945773;28;20051;-81
2021/09/21 08:45:13;;;;;;;12.45;8.68;;;;;;;13.24;79.25;102554.69;4940818;28;20102;-85
2021/09/21 08:47:39;;;;;;;12.00;8.50;;;;;;;13.30;78.42;102556.84;4945489;28;20524;-81
2021/09/21 08:50:07;;;;;;;11.95;7.57;;;;;;;13.38;77.16;102560.69;4943601;28;20036;-80
2021/09/21 08:52:33;;;;;;;10.02;7.60;;;;;;;13.42;77.53;102562.13;4927049;28;20052;-83
2021/09/21 08:54:59;;;;;;;10.93;7.57;;;;;;;13.49;77.09;102560.56;4940850;28;20059;-84
2021/09/21 08:57:25;;;;;;;10.75;6.88;;;;;;;13.55;76.67;102560.00;4931369;28;20446;-85
2021/09/21 08:59:56;;;;;;;12.88;8.02;;;;;;;13.58;77.49;102558.88;4933215;28;20768;-81
2021/09/21 09:02:23;;;;;;;10.13;7.28;;;;;;;13.67;78.38;102558.03;4946131;28;20138;-81
2021/09/21 09:05:15;;;;;;;10.15;7.97;;;;;;;13.74;78.79;102576.19;4932717;28;20684;-83
2021/09/21 09:07:51;;;;;;;8.13;5.40;;;;;;;13.83;76.85;102571.78;4934843;28;20043;-81
2021/09/21 09:10:19;;;;;;;7.32;5.15;;;;;;;13.87;74.85;102564.28;4936889;28;20512;-81
2021/09/21 09:12:45;;;;;;;10.50;5.75;;;;;;;13.88;74.38;102565.97;4941478;28;20047;-85
2021/09/21 09:15:18;;;;;;;7.32;4.72;;;;;;;13.94;74.37;102568.09;4943676;28;20098;-80
2021/09/21 09:18:01;;;;;;;7.18;4.35;;;;;;;14.02;73.04;102570.94;4943232;28;20532;-80
2021/09/21 09:20:39;;;;;;;6.70;4.45;;;;;;;14.05;73.34;102567.13;4943869;28;20393;-85
2021/09/21 09:23:07;;;;;;;6.80;4.30;;;;;;;13.99;70.79;102561.28;4924286;28;20217;-80
2021/09/21 09:25:40;;;;;;;6.90;4.32;;;;;;;13.94;68.78;102560.00;4942974;28;20374;-83
2021/09/21 09:28:06;;;;;;;6.03;4.00;;;;;;;14.03;70.56;102553.75;4943895;28;20461;-82
2021/09/21 09:30:31;;;;;;;6.70;4.18;;;;;;;14.15;70.38;102565.22;4943289;28;20079;-86
2021/09/21 09:33:01;;;;;;;6.40;4.53;;;;;;;14.14;71.14;102564.38;4940851;28;20057;-81
2021/09/21 09:35:29;;;;;;;7.38;4.70;;;;;;;14.26;72.57;102570.47;4943989;28;20102;-81
2021/09/21 09:37:58;;;;;;;7.40;4.30;;;;;;;14.33;70.27;102576.16;4942417;28;20047;-82
2021/09/21 09:40:23;;;;;;;7.97;4.13;;;;;;;14.29;70.81;102575.56;4960056;28;20049;-85
2021/09/21 09:42:49;;;;;;;6.10;4.25;;;;;;;14.29;71.14;102574.72;4944067;28;20058;-84
2021/09/21 09:45:28;;;;;;;5.18;3.35;;;;;;;14.38;70.19;102573.84;4947150;28;20582;-83
2021/09/21 09:47:53;;;;;;;5.30;3.22;;;;;;;14.39;66.75;102575.56;4944861;28;20082;-85
2021/09/21 09:50:25;;;;;;;6.10;4.30;;;;;;;14.41;70.89;102573.56;4949761;28;20051;-81
2021/09/21 09:53:02;;;;;;;7.10;4.80;;;;;;;14.51;70.34;102569.00;4944306;28;20054;-84
2021/09/21 09:55:28;;;;;;;5.53;3.70;;;;;;;14.43;68.41;102568.88;4941438;28;20046;-81
2021/09/21 09:57:54;;;;;;;4.28;3.08;;;;;;;14.49;67.41;102572.84;4939533;28;20055;-85
2021/09/21 10:00:20;;;;;;;4.68;3.40;;;;;;;14.62;67.83;102568.84;4938850;28;20194;-81
2021/09/21 10:02:46;;;;;;;8.07;4.35;;;;;;;14.70;67.99;102567.25;4934749;28;20126;-82
2021/09/21 10:05:11;;;;;;;8.60;5.00;;;;;;;14.62;65.32;102566.16;4940887;28;20082;-82
2021/09/21 10:07:37;;;;;;;6.63;4.57;;;;;;;14.70;65.60;102567.25;4946876;28;20120;-81
2021/09/21 10:10:03;;;;;;;9.30;4.88;;;;;;;14.78;66.57;102578.16;4935298;28;20054;-86
2021/09/21 10:12:28;;;;;;;6.72;5.03;;;;;;;14.89;67.41;102567.16;4936368;28;20525;-85
2021/09/21 10:14:54;;;;;;;7.35;5.50;;;;;;;14.88;66.21;102570.88;4935000;28;20044;-80
2021/09/21 10:17:25;;;;;;;9.13;5.95;;;;;;;15.01;66.81;102574.06;4939369;28;20050;-84
2021/09/21 10:19:55;;;;;;;9.55;6.43;;;;;;;15.01;68.02;102578.63;4935727;28;20101;-81
2021/09/21 10:22:36;;;;;;;7.60;4.95;;;;;;;14.95;63.70;102577.38;4937906;28;20565;-85
2021/09/21 10:25:07;;;;;;;7.68;4.82;;;;;;;15.07;67.17;102578.03;4938141;28;20530;-82
2021/09/21 10:27:36;;;;;;;10.07;5.15;;;;;;;15.09;61.28;102579.59;4937743;28;20486;-81
2021/09/21 10:30:09;;;;;;;;;;;;;;;15.14;64.76;102571.03;4935427;28;20113;-87
2021/09/21 10:32:48;;;;;;;6.25;3.40;;;;;;;15.20;64.40;102574.97;4935519;28;19965;-81
2021/09/21 10:35:17;;;;;;;6.95;4.38;;;;;;;15.44;65.94;102567.13;4942766;28;20043;-81
2021/09/21 10:37:44;;;;;;;5.15;3.45;;;;;;;15.64;62.66;102562.41;4937728;28;20079;-83
2021/09/21 10:40:10;;;;;;;7.88;4.30;;;;;;;15.66;60.74;102560.41;4942538;28;20051;-87
2021/09/21 10:42:36;;;;;;;5.00;3.22;;;;;;;15.74;61.99;102567.81;4943106;28;20516;-81
2021/09/21 10:45:05;;;;;;;5.15;2.90;;;;;;;15.75;60.79;102569.50;4941681;28;20457;-81
2021/09/21 10:47:40;;;;;;;4.57;2.33;;;;;;;15.73;58.79;102577.75;4937178;28;20048;-83
2021/09/21 10:50:12;;;;;;;4.25;2.85;;;;;;;15.80;59.81;102572.59;4940146;28;20048;-81
2021/09/21 10:52:38;;;;;;;4.45;2.55;;;;;;;15.88;57.79;102582.63;4940293;28;20051;-84
2021/09/21 10:55:08;;;;;;;3.75;2.13;;;;;;;15.91;59.10;102577.78;4934406;28;20150;-82
2021/09/21 10:57:45;;;;;;;3.78;2.38;;;;;;;15.96;58.15;102571.88;4941129;28;20057;-82
2021/09/21 11:00:13;;;;;;;4.63;2.10;;;;;;;15.94;55.16;102577.44;4946287;28;20047;-85
2021/09/21 11:02:42;;;;;;;4.45;2.33;;;;;;;16.02;58.35;102576.66;4940036;28;20058;-81
2021/09/21 11:05:17;;;;;;;3.90;2.70;;;;;;;16.18;58.83;102581.34;4939100;28;20505;-82
2021/09/21 11:07:55;;;;;;;6.20;2.58;;;;;;;16.15;57.22;102570.84;4935236;28;20043;-87
2021/09/21 11:10:21;;;;;;;4.97;2.22;;;;;;;16.08;55.03;102572.47;4937319;28;20051;-82
2021/09/21 11:12:53;;;;;;;5.63;2.83;;;;;;;16.07;58.71;102574.31;4933085;28;20074;-84
2021/09/21 11:15:25;;;;;;;4.32;2.90;;;;;;;16.20;58.86;102563.09;4933437;28;20106;-87
2021/09/21 11:18:04;;;;;;;5.40;2.80;;;;;;;16.31;57.66;102562.81;4936381;29;20127;-82
2021/09/21 11:20:30;;;;;;;4.10;2.58;;;;;;;16.28;56.83;102565.00;4941327;28;20394;-83
2021/09/21 11:22:59;;;;;;;4.30;2.47;;;;;;;16.27;54.11;102566.84;4936519;28;20047;-84
2021/09/21 11:25:28;;;;;;;5.93;3.45;;;;;;;16.18;55.09;102563.25;4926864;28;20058;-86